WetterOnline ( http://www.wetteronline.de )

Wetter aktuell Ockfen

Aktuelles Wetter: Trier/Petrisberg (273m)

6-stündlich | Neueste Meldungen
Ortszeit Temperatur Wetter
Di, 25.09. 14:00 14.3° C fast wolkenlos
Di, 25.09. 8:00 3.9° C Nebel
Di, 25.09. 2:00 5.4° C wolkenlos
Mo, 24.09. 20:00 10.7° C bedeckt
Mo, 24.09. 14:00 13.6° C wolkig
Mo, 24.09. 8:00 4.9° C Nebel
Mo, 24.09. 2:00 7.6° C fast wolkenlos
So, 23.09. 20:00 10.6° C bedeckt
Ortszeit Temperatur Wetter
Di, 25.09. 18:00 14.5° C leicht bewölkt
Di, 25.09. 17:50 14.5° C wolkig
Di, 25.09. 17:40 14.7° C wolkig
Di, 25.09. 17:30 15.1° C wolkig
Di, 25.09. 17:20 15.1° C wolkig
Di, 25.09. 17:10 15.1° C wolkig
Di, 25.09. 17:00 15.4° C leicht bewölkt
Di, 25.09. 16:30 15.4° C wolkenlos
Di, 25.09. 16:00 15.6° C fast wolkenlos
Di, 25.09. 15:30 16.1° C leicht bewölkt
Di, 25.09. 15:00 15.6° C wolkenlos
Ortszeit Relative Feuchte Sichtweite
Di, 25.09. 14:00 48% 70 km
Di, 25.09. 8:00 99% 0.3 km
Di, 25.09. 2:00 95% 30 km
Mo, 24.09. 20:00 73% 70 km
Mo, 24.09. 14:00 55% 70 km
Mo, 24.09. 8:00 98% 0.3 km
Mo, 24.09. 2:00 87% 70 km
So, 23.09. 20:00 90% 70 km
Ortszeit Relative Feuchte Sichtweite
Di, 25.09. 18:00 40% 70 km
Di, 25.09. 17:50 40% -
Di, 25.09. 17:40 38% -
Di, 25.09. 17:30 39% 70 km
Di, 25.09. 17:20 39% -
Di, 25.09. 17:10 40% -
Di, 25.09. 17:00 40% 70 km
Di, 25.09. 16:30 38% 70 km
Di, 25.09. 16:00 36% 70 km
Di, 25.09. 15:30 42% 70 km
Di, 25.09. 15:00 42% 70 km
Ortszeit Niederschlagsmenge Niederschlagsart
Di, 25.09. 14:00 0.0 l/m2 in 6 Std. -
Di, 25.09. 8:00 0.0 l/m2 in 12 Std. -
Di, 25.09. 2:00 0.0 l/m2 in 6 Std. -
Mo, 24.09. 20:00 0.1 l/m2 in 12 Std. Regen
Mo, 24.09. 14:00 0.0 l/m2 in 6 Std. -
Mo, 24.09. 8:00 0.0 l/m2 in 12 Std. -
Mo, 24.09. 2:00 0.0 l/m2 in 6 Std. -
So, 23.09. 20:00 14 l/m2 in 12 Std. Regenschauer
Ortszeit Niederschlagsmenge Niederschlagsart
Di, 25.09. 18:00 0.0 l/m2 in 1 Std. -
Di, 25.09. 17:50 keine Meldung -
Di, 25.09. 17:40 keine Meldung -
Di, 25.09. 17:30 0.0 l/m2 in 1 Std. -
Di, 25.09. 17:20 keine Meldung -
Di, 25.09. 17:10 keine Meldung -
Di, 25.09. 17:00 0.0 l/m2 in 1 Std. -
Di, 25.09. 16:30 0.0 l/m2 in 1 Std. -
Di, 25.09. 16:00 0.0 l/m2 in 1 Std. -
Di, 25.09. 15:30 0.0 l/m2 in 1 Std. -
Di, 25.09. 15:00 0.0 l/m2 in 1 Std. -
Ortszeit Stärke Spitze Richtung
km/h Bft. km/h Grad Sektor
Di, 25.09. 14:00 17 3 28 30° NO
Di, 25.09. 8:00 7 2 18 20° N
Di, 25.09. 2:00 7 2 14 10° N
Mo, 24.09. 20:00 7 2 32 360° N
Mo, 24.09. 14:00 7 2 18 260° W
Mo, 24.09. 8:00 6 1 11 210° SW
Mo, 24.09. 2:00 6 1 35 260° W
So, 23.09. 20:00 13 3 100 320° NW
Ortszeit Stärke Spitze Richtung
km/h Bft. km/h Grad Sektor
Di, 25.09. 18:00 11 2 22 70° O
Di, 25.09. 17:50 11 2 - 70° O
Di, 25.09. 17:40 11 2 - 80° O
Di, 25.09. 17:30 11 2 22 80° O
Di, 25.09. 17:20 11 2 - 80° O
Di, 25.09. 17:10 11 2 - 80° O
Di, 25.09. 17:00 15 3 28 50° NO
Di, 25.09. 16:30 11 2 29 70° O
Di, 25.09. 16:00 13 3 30 70° O
Di, 25.09. 15:30 9 2 24 60° NO
Di, 25.09. 15:00 11 2 29 80° O
Ortszeit Untergrenze Bedeckung Gattung
total tief tief mittel hoch
Di, 25.09. 14:00 10500 m 2/8 0/8 - - -
Di, 25.09. 8:00 <30 m 8/8 8/8 - - -
Di, 25.09. 2:00 - 0/8 0/8 - - -
Mo, 24.09. 20:00 2100 m 8/8 8/8 - - -
Mo, 24.09. 14:00 990 m 6/8 6/8 - - -
Mo, 24.09. 8:00 <30 m 7/8 7/8 - - -
Mo, 24.09. 2:00 1140 m 1/8 1/8 - - -
So, 23.09. 20:00 360 m 8/8 8/8 - - -
Ortszeit Bedeckungsgrad in Achtel und Wolkenuntergrenze
Di, 25.09. 18:00 2(9000m) 8(9000m)
Di, 25.09. 17:50 2(9000m) 8(9000m)
Di, 25.09. 17:40 3(9000m) 8(9000m) 8(10500m)
Di, 25.09. 17:30 4(9000m) 7(9000m) 7(10500m)
Di, 25.09. 17:20 4(9000m) 7(9000m) 7(10500m)
Di, 25.09. 17:10 7(9000m) 7(10500m)
Di, 25.09. 17:00 3(9000m)
Di, 25.09. 16:30 keine Wolken
Di, 25.09. 16:00 1(9000m)
Di, 25.09. 15:30 3(9000m) 5(10500m)
Di, 25.09. 15:00 1(10500m)
Ortszeit Luftdruck NN (hPa) Tendenz (hPa in 3 Std.)
Di, 25.09. 14:00 1038 - 0,7
Di, 25.09. 8:00 1039 + 0,3
Di, 25.09. 2:00 1038 + 0,6
Mo, 24.09. 20:00 1036 + 1,0
Mo, 24.09. 14:00 1035 + 0,2
Mo, 24.09. 8:00 1033 + 2,6
Mo, 24.09. 2:00 1027 + 4,5
So, 23.09. 20:00 1016 + 6,2
Ortszeit Luftdruck NN (hPa) Tendenz (hPa in 3 Std.)
Di, 25.09. 18:00 1037 - 1,1
Di, 25.09. 17:50 1037 keine Meldung
Di, 25.09. 17:40 1037 keine Meldung
Di, 25.09. 17:30 1037 - 1,3
Di, 25.09. 17:20 1037 keine Meldung
Di, 25.09. 17:10 1037 keine Meldung
Di, 25.09. 17:00 1037 - 1,3
Di, 25.09. 16:30 1037 - 1,2
Di, 25.09. 16:00 1037 - 1,0
Di, 25.09. 15:30 1037 - 0,9
Di, 25.09. 15:00 1038 - 1,2
Ortszeit Schneehöhe (cm)
Di, 25.09. 14:00 -
Di, 25.09. 8:00 -
Di, 25.09. 2:00 -
Mo, 24.09. 20:00 -
Mo, 24.09. 14:00 -
Mo, 24.09. 8:00 -
Mo, 24.09. 2:00 -
So, 23.09. 20:00 -
Ortszeit Schneehöhe (cm)
Di, 25.09. 18:00 -
Di, 25.09. 17:50 -
Di, 25.09. 17:40 -
Di, 25.09. 17:30 -
Di, 25.09. 17:20 -
Di, 25.09. 17:10 -
Di, 25.09. 17:00 -
Di, 25.09. 16:30 -
Di, 25.09. 16:00 -
Di, 25.09. 15:30 -
Di, 25.09. 15:00 -
Link zu dieser Seite / Seite empfehlen

Das Wetter in ...